createdAt,value
2022-11-09T00:00:27.650Z,54.70
2022-11-09T00:02:58.701Z,51.33
2022-11-09T00:05:28.937Z,50.77
2022-11-09T00:08:00.240Z,51.20
2022-11-09T00:13:18.873Z,51.13
2022-11-09T00:15:48.199Z,52.87
2022-11-09T00:18:20.957Z,52.97
2022-11-09T00:20:53.161Z,54.50
2022-11-09T00:26:17.135Z,48.13
2022-11-09T00:31:30.990Z,50.43
2022-11-09T00:34:04.043Z,50.83
2022-11-09T00:36:44.998Z,52.40
2022-11-09T00:39:15.468Z,50.10
2022-11-09T00:41:43.397Z,51.10
2022-11-09T00:44:16.333Z,51.27
2022-11-09T00:46:59.964Z,50.30
2022-11-09T00:49:33.965Z,53.77
2022-11-09T00:52:02.974Z,51.53
2022-11-09T00:57:22.705Z,51.30
2022-11-09T00:59:57.316Z,59.97
2022-11-09T01:02:30.895Z,48.03
2022-11-09T01:05:07.577Z,54.37
2022-11-09T01:07:37.448Z,48.77
2022-11-09T01:10:09.181Z,55.13
2022-11-09T01:12:40.104Z,55.03
2022-11-09T01:15:09.341Z,57.80
2022-11-09T01:17:38.983Z,54.87
2022-11-09T01:20:14.963Z,58.93
2022-11-09T01:22:45.885Z,54.73
2022-11-09T01:25:22.200Z,58.80
2022-11-09T01:28:04.896Z,56.33
2022-11-09T01:30:47.002Z,56.33
2022-11-09T01:33:18.157Z,56.77
2022-11-09T01:35:46.622Z,58.47
2022-11-09T01:38:19.037Z,58.80
2022-11-09T01:40:52.629Z,57.13
2022-11-09T01:43:25.129Z,60.40
2022-11-09T01:46:12.540Z,61.60
2022-11-09T01:52:17.867Z,64.83
2022-11-09T01:57:58.608Z,61.03
2022-11-09T02:00:30.009Z,65.60
2022-11-09T02:03:22.343Z,63.03
2022-11-09T02:05:57.154Z,61.53
2022-11-09T02:08:28.506Z,62.20
2022-11-09T02:11:27.533Z,71.90
2022-11-09T02:14:03.709Z,62.10
2022-11-09T02:16:34.475Z,64.37
2022-11-09T02:19:08.920Z,62.80
2022-11-09T02:21:38.312Z,65.27
2022-11-09T02:24:09.767Z,67.20
2022-11-09T02:26:50.206Z,71.97
2022-11-09T02:29:27.189Z,63.27
2022-11-09T02:32:09.873Z,64.60
2022-11-09T02:34:47.451Z,66.53
2022-11-09T02:38:06.504Z,57.60
2022-11-09T02:40:46.076Z,55.37
2022-11-09T02:43:20.258Z,51.60
2022-11-09T02:45:51.848Z,56.10
2022-11-09T02:48:23.995Z,52.63
2022-11-09T02:50:54.960Z,55.07
2022-11-09T02:53:28.958Z,59.17
2022-11-09T02:55:56.338Z,57.50
2022-11-09T02:58:26.740Z,56.00
2022-11-09T03:00:59.854Z,58.27
2022-11-09T03:03:33.579Z,63.30
2022-11-09T03:06:01.756Z,58.43
2022-11-09T03:08:31.195Z,59.33
2022-11-09T03:16:33.941Z,63.43
2022-11-09T03:19:13.742Z,61.17
2022-11-09T03:24:32.409Z,67.83
2022-11-09T03:27:02.049Z,63.37
2022-11-09T03:29:32.032Z,63.47
2022-11-09T03:32:06.648Z,69.27
2022-11-09T03:34:39.466Z,60.10
2022-11-09T03:37:09.760Z,65.80
2022-11-09T03:39:41.545Z,60.80
2022-11-09T03:42:18.162Z,70.67
2022-11-09T03:44:49.951Z,63.83
2022-11-09T03:47:26.766Z,62.90
2022-11-09T03:49:56.727Z,63.30
2022-11-09T03:52:26.540Z,62.57
2022-11-09T03:57:43.697Z,56.30
2022-11-09T04:00:40.192Z,56.53
2022-11-09T04:06:07.654Z,56.10
2022-11-09T04:11:20.540Z,56.67
2022-11-09T04:13:49.164Z,58.77
2022-11-09T04:19:04.182Z,63.40
2022-11-09T04:21:39.189Z,53.53
2022-11-09T04:24:08.358Z,60.47
2022-11-09T04:26:38.136Z,54.83
2022-11-09T04:34:34.089Z,61.13
2022-11-09T04:42:30.274Z,56.17
2022-11-09T04:45:00.589Z,60.97
2022-11-09T04:47:46.256Z,58.77
2022-11-09T04:50:35.244Z,58.13
2022-11-09T04:53:18.155Z,62.27
2022-11-09T04:55:49.218Z,55.97
2022-11-09T05:01:08.996Z,58.23
2022-11-09T05:06:39.182Z,58.43
2022-11-09T05:12:12.802Z,58.10
2022-11-09T05:14:42.567Z,55.23
2022-11-09T05:17:12.654Z,59.00
2022-11-09T05:19:43.934Z,59.83
2022-11-09T05:22:41.317Z,56.60
2022-11-09T05:25:10.849Z,58.47
2022-11-09T05:27:46.183Z,57.70
2022-11-09T05:35:47.724Z,59.17
2022-11-09T05:38:21.152Z,60.87
2022-11-09T05:41:02.413Z,56.30
2022-11-09T05:43:33.036Z,55.83
2022-11-09T05:46:06.735Z,61.77
2022-11-09T05:48:46.431Z,60.07
2022-11-09T05:51:19.695Z,57.70
2022-11-09T05:53:55.174Z,56.57
2022-11-09T05:56:26.050Z,58.43
2022-11-09T05:58:56.444Z,60.53
2022-11-09T06:01:25.508Z,60.57
2022-11-09T06:03:57.368Z,56.57
2022-11-09T06:06:25.817Z,52.67
2022-11-09T06:08:59.392Z,61.20
2022-11-09T06:11:37.740Z,59.63
2022-11-09T06:14:12.310Z,57.87
2022-11-09T06:16:43.418Z,58.57
2022-11-09T06:19:23.764Z,57.70
2022-11-09T06:24:39.517Z,54.23
2022-11-09T06:27:09.941Z,54.57
2022-11-09T06:29:41.880Z,57.77
2022-11-09T06:32:11.573Z,53.47
2022-11-09T06:34:42.042Z,55.57
2022-11-09T06:37:21.864Z,51.73
2022-11-09T06:42:46.685Z,48.43
2022-11-09T06:45:15.229Z,51.97
2022-11-09T06:50:37.305Z,49.90
2022-11-09T06:53:09.401Z,46.70
2022-11-09T06:55:53.676Z,52.20
2022-11-09T06:58:26.147Z,49.77
2022-11-09T07:01:01.106Z,47.90
2022-11-09T07:03:29.069Z,51.23
2022-11-09T07:06:00.050Z,47.07
2022-11-09T07:08:36.000Z,47.77
2022-11-09T07:11:11.355Z,47.30
2022-11-09T07:13:39.956Z,42.90
2022-11-09T07:16:12.066Z,45.40
2022-11-09T07:18:55.551Z,44.07
2022-11-09T07:21:31.174Z,49.63
2022-11-09T07:23:58.343Z,46.30
2022-11-09T07:26:30.977Z,45.83
2022-11-09T07:28:59.563Z,41.80
2022-11-09T07:31:30.014Z,42.60
2022-11-09T07:34:07.649Z,44.50
2022-11-09T07:36:46.719Z,45.03
2022-11-09T07:39:18.031Z,45.43
2022-11-09T07:41:48.636Z,53.17
2022-11-09T07:44:20.406Z,43.90
2022-11-09T07:57:44.793Z,50.37
2022-11-09T08:00:18.730Z,44.93
2022-11-09T08:02:54.635Z,41.13
2022-11-09T08:05:29.885Z,47.97
2022-11-09T08:08:03.963Z,51.13
2022-11-09T08:10:36.064Z,46.73
2022-11-09T08:13:16.565Z,45.90
2022-11-09T08:15:45.235Z,48.67
2022-11-09T08:18:21.156Z,51.47
2022-11-09T08:20:54.204Z,45.13
2022-11-09T08:23:25.623Z,48.43
2022-11-09T08:25:57.918Z,45.97
2022-11-09T08:28:28.393Z,48.90
2022-11-09T08:31:19.846Z,49.00
2022-11-09T08:33:50.442Z,47.87
2022-11-09T08:36:34.295Z,40.33
2022-11-09T08:39:04.185Z,41.67
2022-11-09T08:41:33.832Z,39.60
2022-11-09T08:46:48.906Z,42.97
2022-11-09T08:49:18.106Z,41.20
2022-11-09T08:51:56.462Z,39.60
2022-11-09T08:54:29.112Z,37.30
2022-11-09T08:56:58.249Z,34.13
2022-11-09T08:59:26.498Z,35.03
2022-11-09T09:01:59.436Z,36.13
2022-11-09T09:04:35.797Z,36.73
2022-11-09T09:07:05.668Z,36.80
2022-11-09T09:09:42.900Z,37.17
2022-11-09T09:12:10.848Z,36.73
2022-11-09T09:14:42.172Z,37.43
2022-11-09T09:17:09.547Z,36.77
2022-11-09T09:19:37.497Z,36.03
2022-11-09T09:22:10.071Z,37.20
2022-11-09T09:24:40.847Z,37.93
2022-11-09T09:27:11.654Z,36.43
2022-11-09T09:29:40.756Z,37.53
2022-11-09T09:32:11.257Z,35.20
2022-11-09T09:34:41.704Z,37.37
2022-11-09T09:37:12.189Z,35.10
2022-11-09T09:39:43.196Z,36.97
2022-11-09T09:42:21.716Z,37.57
2022-11-09T09:45:05.067Z,35.47
2022-11-09T09:48:13.314Z,35.37
2022-11-09T09:50:52.824Z,34.83
2022-11-09T09:54:17.846Z,36.60
2022-11-09T09:56:51.318Z,34.07
2022-11-09T09:59:44.027Z,34.57
2022-11-09T10:02:36.612Z,34.90
2022-11-09T10:05:31.129Z,34.50
2022-11-09T10:08:32.492Z,36.43
2022-11-09T10:11:19.002Z,31.13
2022-11-09T10:14:16.200Z,29.17
2022-11-09T10:17:33.038Z,32.63
2022-11-09T10:20:33.806Z,30.87
2022-11-09T10:23:33.791Z,29.60
2022-11-09T10:26:19.087Z,29.63
2022-11-09T10:31:51.655Z,31.47
2022-11-09T10:35:03.185Z,28.70
2022-11-09T10:37:59.836Z,27.57
2022-11-09T10:40:41.200Z,29.10
2022-11-09T10:43:38.969Z,24.90
2022-11-09T10:46:35.309Z,27.07
2022-11-09T10:49:25.002Z,28.73
2022-11-09T10:52:47.335Z,25.83
2022-11-09T10:55:52.544Z,26.90
2022-11-09T10:58:55.686Z,25.57
2022-11-09T11:01:43.762Z,25.47
2022-11-09T11:04:33.655Z,27.83
2022-11-09T11:07:22.800Z,23.43
2022-11-09T11:10:24.147Z,22.57
2022-11-09T11:13:14.852Z,23.60
2022-11-09T11:16:32.565Z,26.90
2022-11-09T11:19:45.735Z,24.60
2022-11-09T11:22:34.630Z,23.73
2022-11-09T11:25:25.710Z,22.03
2022-11-09T11:28:27.388Z,20.10
2022-11-09T11:31:19.256Z,22.63
2022-11-09T11:34:45.779Z,22.23
2022-11-09T11:37:57.751Z,21.37
2022-11-09T11:41:14.816Z,21.63
2022-11-09T11:44:41.682Z,21.33
2022-11-09T11:47:51.279Z,20.20
2022-11-09T11:50:54.478Z,21.37
2022-11-09T11:54:01.786Z,22.33
2022-11-09T11:57:08.958Z,21.73
2022-11-09T12:00:19.570Z,22.20
2022-11-09T12:03:49.492Z,21.00
2022-11-09T12:07:04.137Z,25.43
2022-11-09T12:10:35.317Z,22.30
2022-11-09T12:14:01.382Z,26.90
2022-11-09T12:16:56.642Z,21.37
2022-11-09T12:20:23.368Z,22.47
2022-11-09T12:23:37.441Z,20.37
2022-11-09T12:27:25.732Z,21.00
2022-11-09T12:30:22.383Z,21.23
2022-11-09T12:33:54.900Z,23.77
2022-11-09T12:37:11.923Z,22.57
2022-11-09T12:43:50.140Z,24.57
2022-11-09T12:46:45.267Z,22.40
2022-11-09T12:49:44.078Z,21.67
2022-11-09T12:52:33.545Z,23.03
2022-11-09T12:56:10.470Z,24.73
2022-11-09T12:59:35.364Z,23.00
2022-11-09T13:05:45.898Z,21.73
2022-11-09T13:08:49.086Z,22.77
2022-11-09T13:12:20.524Z,25.30
2022-11-09T13:15:49.490Z,25.00
2022-11-09T13:18:49.616Z,29.20
2022-11-09T13:21:41.683Z,34.97
2022-11-09T13:24:56.139Z,35.37
2022-11-09T13:27:49.304Z,36.87
2022-11-09T13:30:43.528Z,31.43
2022-11-09T13:33:42.248Z,29.70
2022-11-09T13:36:32.982Z,32.20
2022-11-09T13:39:40.113Z,26.73
2022-11-09T13:42:39.026Z,32.03
2022-11-09T13:45:55.388Z,27.60
2022-11-09T13:48:55.905Z,25.93
2022-11-09T13:51:50.653Z,26.77
2022-11-09T13:54:58.355Z,24.10
2022-11-09T13:57:49.791Z,24.27
2022-11-09T14:00:38.857Z,27.20
2022-11-09T14:03:31.650Z,25.87
2022-11-09T14:06:22.314Z,24.77
2022-11-09T14:09:21.628Z,26.73
2022-11-09T14:12:45.356Z,24.13
2022-11-09T14:16:18.366Z,24.90
2022-11-09T14:19:43.461Z,25.43
2022-11-09T14:22:41.730Z,27.27
2022-11-09T14:25:32.404Z,26.37
2022-11-09T14:31:26.835Z,28.27
2022-11-09T14:37:17.366Z,25.07
2022-11-09T14:40:07.773Z,26.17
2022-11-09T14:43:04.894Z,25.37
2022-11-09T14:45:59.226Z,26.70
2022-11-09T14:49:02.017Z,28.00
2022-11-09T14:54:51.721Z,25.10
2022-11-09T14:57:41.296Z,27.93
2022-11-09T15:00:46.174Z,27.47
2022-11-09T15:06:46.379Z,26.67
2022-11-09T15:09:44.871Z,37.27
2022-11-09T15:12:34.764Z,31.70
2022-11-09T15:15:29.269Z,30.60
2022-11-09T15:18:47.228Z,30.03
2022-11-09T15:21:40.751Z,30.93
2022-11-09T15:24:47.050Z,32.47
2022-11-09T15:27:36.135Z,31.37
2022-11-09T15:30:48.805Z,29.57
2022-11-09T15:34:00.191Z,29.13
2022-11-09T15:36:57.440Z,29.33
2022-11-09T15:39:47.750Z,32.30
2022-11-09T15:42:37.868Z,32.90
2022-11-09T15:45:28.214Z,30.80
2022-11-09T15:48:20.011Z,33.13
2022-11-09T15:54:21.551Z,29.70
2022-11-09T15:57:17.487Z,28.53
2022-11-09T16:00:19.532Z,35.53
2022-11-09T16:03:10.585Z,40.20
2022-11-09T16:06:07.368Z,56.20
2022-11-09T16:09:01.985Z,55.10
2022-11-09T16:11:53.922Z,55.47
2022-11-09T16:14:51.098Z,43.53
2022-11-09T16:17:39.639Z,38.70
2022-11-09T16:20:29.468Z,34.57
2022-11-09T16:23:27.432Z,35.23
2022-11-09T16:26:25.801Z,35.17
2022-11-09T16:29:14.375Z,34.27
2022-11-09T16:32:04.365Z,35.90
2022-11-09T16:35:23.337Z,35.40
2022-11-09T16:38:12.212Z,33.37
2022-11-09T16:41:13.926Z,33.93
2022-11-09T16:44:05.837Z,36.60
2022-11-09T16:46:56.301Z,54.97
2022-11-09T16:49:46.855Z,49.33
2022-11-09T16:52:37.338Z,47.13
2022-11-09T16:55:27.918Z,38.23
2022-11-09T16:58:20.147Z,39.27
2022-11-09T17:01:12.412Z,38.30
2022-11-09T17:04:03.348Z,38.43
2022-11-09T17:06:53.172Z,40.10
2022-11-09T17:09:43.692Z,36.30
2022-11-09T17:12:41.403Z,35.87
2022-11-09T17:15:34.389Z,33.17
2022-11-09T17:18:28.238Z,36.47
2022-11-09T17:21:18.945Z,39.97
2022-11-09T17:24:09.185Z,41.20
2022-11-09T17:27:00.874Z,37.77
2022-11-09T17:29:53.711Z,42.47
2022-11-09T17:32:51.725Z,39.17
2022-11-09T17:35:41.466Z,41.23
2022-11-09T17:38:33.269Z,41.87
2022-11-09T17:41:22.848Z,41.13
2022-11-09T17:44:20.931Z,40.07
2022-11-09T17:50:12.954Z,41.33
2022-11-09T17:53:04.735Z,36.37
2022-11-09T17:56:04.731Z,36.00
2022-11-09T17:58:56.557Z,37.57
2022-11-09T18:01:43.503Z,34.43
2022-11-09T18:04:42.180Z,42.10
2022-11-09T18:07:37.074Z,44.33
2022-11-09T18:10:27.928Z,39.33
2022-11-09T18:13:18.482Z,37.30
2022-11-09T18:16:22.014Z,31.13
2022-11-09T18:19:12.311Z,35.87
2022-11-09T18:22:02.828Z,35.73
2022-11-09T18:24:54.909Z,35.27
2022-11-09T18:27:55.597Z,35.90
2022-11-09T18:33:58.240Z,34.60
2022-11-09T18:36:59.388Z,33.93
2022-11-09T18:39:46.980Z,35.40
2022-11-09T18:42:37.499Z,41.17
2022-11-09T18:45:28.248Z,46.07
2022-11-09T18:54:27.962Z,37.37
2022-11-09T18:57:20.228Z,35.37
2022-11-09T19:03:26.626Z,30.20
2022-11-09T19:06:20.087Z,29.40
2022-11-09T19:09:30.973Z,31.40
2022-11-09T19:12:26.584Z,33.67
2022-11-09T19:15:28.047Z,33.47
2022-11-09T19:18:23.094Z,36.50
2022-11-09T19:21:40.220Z,42.93
2022-11-09T19:24:39.303Z,41.27
2022-11-09T19:27:31.836Z,36.47
2022-11-09T19:30:30.029Z,42.00
2022-11-09T19:33:31.008Z,43.93
2022-11-09T19:39:35.370Z,39.67
2022-11-09T19:42:38.797Z,40.03
2022-11-09T19:45:37.175Z,38.43
2022-11-09T19:48:23.813Z,34.03
2022-11-09T19:51:22.023Z,38.40
2022-11-09T19:57:12.782Z,38.60
2022-11-09T20:00:06.058Z,36.63
2022-11-09T20:02:56.504Z,38.70
2022-11-09T20:05:50.094Z,37.50
2022-11-09T20:08:50.599Z,37.67
2022-11-09T20:12:07.051Z,34.80
2022-11-09T20:14:59.835Z,36.70
2022-11-09T20:18:06.190Z,39.00
2022-11-09T20:21:06.653Z,38.00
2022-11-09T20:24:01.468Z,38.23
2022-11-09T20:26:53.721Z,46.37
2022-11-09T20:32:53.228Z,40.87
2022-11-09T20:35:51.354Z,36.00
2022-11-09T20:38:42.701Z,34.80
2022-11-09T20:41:39.065Z,39.20
2022-11-09T20:44:33.787Z,41.10
2022-11-09T20:47:49.158Z,39.23
2022-11-09T20:50:37.040Z,41.00
2022-11-09T20:53:34.501Z,50.73
2022-11-09T20:56:26.967Z,58.77
2022-11-09T20:59:17.817Z,58.57
2022-11-09T21:02:05.979Z,40.03
2022-11-09T21:08:11.055Z,33.57
2022-11-09T21:11:19.127Z,35.33
2022-11-09T21:14:08.698Z,34.87
2022-11-09T21:16:59.061Z,34.47
2022-11-09T21:19:47.915Z,30.97
2022-11-09T21:22:58.505Z,33.13
2022-11-09T21:26:09.288Z,33.37
2022-11-09T21:29:21.163Z,30.43
2022-11-09T21:32:08.841Z,31.07
2022-11-09T21:34:59.812Z,31.17
2022-11-09T21:37:56.780Z,35.27
2022-11-09T21:40:46.568Z,29.90
2022-11-09T21:46:33.695Z,34.13
2022-11-09T21:49:24.108Z,30.60
2022-11-09T21:52:11.473Z,30.50
2022-11-09T21:54:57.973Z,31.63
2022-11-09T21:57:50.469Z,32.83
2022-11-09T22:00:39.238Z,29.50
2022-11-09T22:03:28.577Z,33.23
2022-11-09T22:06:25.303Z,32.37
2022-11-09T22:09:23.960Z,30.10
2022-11-09T22:12:35.050Z,27.57
2022-11-09T22:15:47.149Z,27.83
2022-11-09T22:18:59.863Z,26.40
2022-11-09T22:21:49.800Z,26.40
2022-11-09T22:24:42.272Z,26.90
2022-11-09T22:27:32.509Z,27.97
2022-11-09T22:33:27.106Z,27.17
2022-11-09T22:39:16.569Z,27.03
2022-11-09T22:42:05.674Z,26.73
2022-11-09T22:44:53.818Z,25.83
2022-11-09T22:47:41.628Z,26.57
2022-11-09T22:50:28.431Z,23.50
2022-11-09T22:53:18.104Z,24.73
2022-11-09T22:56:09.664Z,24.60
2022-11-09T23:02:01.649Z,21.77
2022-11-09T23:04:52.213Z,26.80
2022-11-09T23:07:40.369Z,25.50
2022-11-09T23:10:36.761Z,27.80
2022-11-09T23:13:26.920Z,24.13
2022-11-09T23:16:16.713Z,24.83
2022-11-09T23:19:05.632Z,23.77
2022-11-09T23:21:53.836Z,23.57
2022-11-09T23:25:05.750Z,21.70
2022-11-09T23:28:03.888Z,22.80
2022-11-09T23:33:57.657Z,19.73
2022-11-09T23:36:49.278Z,22.27
2022-11-09T23:39:36.206Z,18.80
2022-11-09T23:42:23.902Z,21.23
2022-11-09T23:45:14.165Z,19.87
2022-11-09T23:48:03.564Z,18.70
2022-11-09T23:50:53.633Z,18.47
2022-11-09T23:53:42.959Z,18.63
2022-11-09T23:56:33.392Z,20.20
2022-11-09T23:59:26.095Z,19.90
